Time;durP1;ratioP1;P1;durP2;ratioP2;P2;SDS_P1;SDS_P2;PMS_P1;PMS_P2;Temp;Humidity;BMP_temperature;BMP_pressure;BME280_temperature;BME280_humidity;BME280_pressure;Samples;Min_cycle;Max_cycle;Signal;HPM_P1;HPM_P2
2022/10/26 00:01:12;;;;;;;4.47;2.43;;;18.10;77.20;;;-142.21;100.00;112049.66;5053054;28;20441;-70
2022/10/26 00:03:45;;;;;;;5.27;2.07;;;18.10;77.30;;;-142.21;100.00;112049.66;5053913;28;20916;-70
2022/10/26 00:06:15;;;;;;;4.33;2.27;;;18.10;77.70;;;-142.21;100.00;112049.66;5053582;28;20539;-69
2022/10/26 00:08:45;;;;;;;3.80;2.10;;;18.00;77.60;;;-142.21;100.00;112049.66;5053099;28;20446;-69
2022/10/26 00:11:13;;;;;;;4.03;2.30;;;18.10;77.90;;;-142.21;100.00;112049.66;5053555;28;20929;-70
2022/10/26 00:13:42;;;;;;;3.70;2.20;;;18.10;78.00;;;-142.21;100.00;112049.66;5053870;28;20449;-70
2022/10/26 00:16:12;;;;;;;4.47;2.30;;;18.10;78.00;;;-142.21;100.00;112049.66;5052997;28;20440;-69
2022/10/26 00:18:41;;;;;;;3.07;2.00;;;18.10;78.10;;;-142.21;100.00;112049.66;5053264;28;20561;-70
2022/10/26 00:21:10;;;;;;;3.23;2.07;;;18.10;78.20;;;-142.21;100.00;112049.66;5053445;28;20532;-69
2022/10/26 00:23:37;;;;;;;4.43;1.90;;;18.10;78.20;;;-142.21;100.00;112049.66;5053544;28;20534;-69
2022/10/26 00:26:05;;;;;;;3.87;2.07;;;18.10;78.30;;;-142.21;100.00;112049.66;5053479;28;21032;-71
2022/10/26 00:28:33;;;;;;;2.83;2.17;;;18.10;78.50;;;-142.21;100.00;112049.66;5052524;28;20889;-69
2022/10/26 00:31:05;;;;;;;5.13;2.20;;;18.10;78.50;;;-142.21;100.00;112049.66;5053326;28;20194;-69
2022/10/26 00:33:32;;;;;;;6.60;2.80;;;18.10;78.60;;;-142.21;100.00;112049.66;5050296;28;20444;-69
2022/10/26 00:36:01;;;;;;;3.77;2.20;;;18.00;78.40;;;-142.21;100.00;112049.66;5053080;28;20204;-70
2022/10/26 00:38:30;;;;;;;5.20;2.47;;;18.00;78.50;;;-142.21;100.00;112049.66;5052698;28;20571;-70
2022/10/26 00:40:59;;;;;;;4.33;2.53;;;18.00;78.50;;;-142.21;100.00;112049.66;5053071;28;20444;-71
2022/10/26 00:43:39;;;;;;;3.93;2.03;;;18.00;78.70;;;-142.21;100.00;112049.66;5052712;28;20509;-70
2022/10/26 00:46:15;;;;;;;4.63;2.00;;;18.00;79.00;;;-142.21;100.00;112049.66;5038653;28;20543;-70
2022/10/26 00:48:47;;;;;;;1.90;1.67;;;18.00;79.00;;;-142.21;100.00;112049.66;5052675;28;20436;-69
2022/10/26 00:51:25;;;;;;;5.97;2.10;;;18.00;79.00;;;-142.21;100.00;112049.66;5036407;28;20452;-69
2022/10/26 00:53:55;;;;;;;3.07;2.07;;;18.00;79.10;;;-142.21;100.00;112049.66;5052684;28;20555;-69
2022/10/26 00:56:22;;;;;;;3.37;1.67;;;18.00;79.20;;;-142.21;100.00;112049.66;5052783;28;20436;-71
2022/10/26 00:58:50;;;;;;;2.77;1.97;;;18.00;79.20;;;-142.21;100.00;112049.66;5052713;28;20949;-71
2022/10/26 01:01:17;;;;;;;3.33;2.50;;;18.00;79.20;;;-142.21;100.00;112049.66;5051230;28;20854;-69
2022/10/26 01:03:50;;;;;;;5.83;2.33;;;18.00;79.20;;;-142.21;100.00;112049.66;5052025;28;20470;-70
2022/10/26 01:06:19;;;;;;;8.20;3.03;;;17.90;79.10;;;-142.21;100.00;112049.66;5051798;28;20452;-69
2022/10/26 01:08:47;;;;;;;4.80;2.50;;;17.90;79.40;;;-142.21;100.00;112049.66;5052609;28;20471;-69
2022/10/26 01:11:14;;;;;;;2.77;2.17;;;17.90;79.60;;;-142.21;100.00;112049.66;5051940;28;20544;-70
2022/10/26 01:13:45;;;;;;;4.07;2.30;;;17.90;79.70;;;-142.21;100.00;112049.66;5052776;28;20972;-70
2022/10/26 01:16:46;;;;;;;4.40;2.23;;;17.90;79.80;;;-142.21;100.00;112049.66;5033040;28;20957;-69
2022/10/26 01:20:30;;;;;;;4.00;2.10;;;17.90;80.20;;;-142.21;100.00;112049.66;5051766;28;20468;-68
2022/10/26 01:23:10;;;;;;;4.83;2.43;;;17.90;80.40;;;-142.21;100.00;112049.66;5051396;28;20955;-69
2022/10/26 01:26:17;;;;;;;4.83;2.43;;;17.90;80.10;;;-142.21;100.00;112049.66;5052990;28;20476;-70
2022/10/26 01:29:38;;;;;;;3.37;2.20;;;17.90;80.40;;;-142.21;100.00;112049.66;5036475;28;20515;-69
2022/10/26 01:32:14;;;;;;;4.83;2.50;;;17.90;80.90;;;-142.21;100.00;112049.66;5030260;28;20528;-69
2022/10/26 01:34:49;;;;;;;4.27;2.43;;;17.90;80.40;;;-142.21;100.00;112049.66;5050732;28;20877;-69
2022/10/26 01:37:26;;;;;;;6.20;2.40;;;17.90;80.50;;;-142.21;100.00;112049.66;5051459;28;20440;-69
2022/10/26 01:40:01;;;;;;;3.67;2.00;;;17.80;80.40;;;-142.21;100.00;112049.66;5052218;28;20190;-69
2022/10/26 01:42:31;;;;;;;4.43;2.37;;;17.80;80.70;;;-142.21;100.00;112049.66;5051973;28;20464;-69
2022/10/26 01:45:06;;;;;;;5.23;2.27;;;17.90;80.50;;;-142.21;100.00;112049.66;5052461;28;20535;-69
2022/10/26 01:47:39;;;;;;;5.00;2.20;;;17.90;80.90;;;-142.21;100.00;112049.66;5051830;28;20194;-70
2022/10/26 01:50:10;;;;;;;4.40;2.37;;;17.90;80.90;;;-142.21;100.00;112049.66;5052029;28;20444;-69
2022/10/26 01:52:37;;;;;;;4.73;2.30;;;17.90;80.90;;;-142.21;100.00;112049.66;5051294;28;20446;-69
2022/10/26 01:55:22;;;;;;;4.50;2.60;;;17.90;80.90;;;-142.21;100.00;112049.66;5051509;28;21007;-70
2022/10/26 01:57:54;;;;;;;4.80;2.70;;;17.90;80.90;;;-142.21;100.00;112049.66;5050755;28;20480;-69
2022/10/26 02:00:21;;;;;;;8.17;2.60;;;17.90;80.90;;;-142.21;100.00;112049.66;5051191;28;20439;-69
2022/10/26 02:03:11;;;;;;;11.80;2.50;;;17.80;80.80;;;-142.21;100.00;112049.66;5051798;28;20451;-68
2022/10/26 02:05:59;;;;;;;4.90;2.50;;;17.80;82.60;;;-142.21;100.00;112049.66;5048718;28;20931;-68
2022/10/26 02:08:56;;;;;;;5.00;2.47;;;17.80;81.70;;;-142.21;100.00;112049.66;5050444;28;20940;-69
2022/10/26 02:11:37;;;;;;;4.47;2.50;;;17.80;82.00;;;-142.21;100.00;112049.66;5050810;28;20523;-70
2022/10/26 02:14:14;;;;;;;6.93;2.53;;;17.80;81.70;;;-142.21;100.00;112049.66;5051475;28;20444;-69
2022/10/26 02:16:57;;;;;;;4.90;2.40;;;17.80;81.90;;;-142.21;100.00;112049.66;5051737;28;20490;-68
2022/10/26 02:19:46;;;;;;;4.97;2.30;;;17.80;82.00;;;-142.21;100.00;112049.66;5041097;28;20558;-69
2022/10/26 02:22:20;;;;;;;3.23;2.37;;;17.80;82.20;;;-142.21;100.00;112049.66;5051362;28;20443;-68
2022/10/26 02:24:51;;;;;;;6.00;2.93;;;17.90;82.20;;;-142.21;100.00;112049.66;5051239;28;20476;-70
2022/10/26 02:27:24;;;;;;;3.90;2.10;;;17.80;81.90;;;-142.21;100.00;112049.66;5051361;28;20790;-69
2022/10/26 02:29:56;;;;;;;3.27;2.40;;;17.80;81.90;;;-142.21;100.00;112049.66;5051835;28;20433;-69
2022/10/26 02:32:30;;;;;;;3.53;2.50;;;17.80;81.70;;;-142.21;100.00;112049.66;5050912;28;20442;-68
2022/10/26 02:35:02;;;;;;;5.90;2.50;;;17.80;82.20;;;-142.21;100.00;112049.66;5051765;28;20202;-69
2022/10/26 02:37:33;;;;;;;6.03;2.50;;;17.70;82.30;;;-142.21;100.00;112049.66;5051290;28;20198;-69
2022/10/26 02:40:07;;;;;;;3.10;2.50;;;17.70;82.40;;;-142.21;100.00;112049.66;5051436;28;20454;-68
2022/10/26 02:42:35;;;;;;;6.07;2.50;;;17.80;82.70;;;-142.21;100.00;112049.66;5036496;28;20519;-70
2022/10/26 02:45:10;;;;;;;5.67;2.43;;;17.80;82.60;;;-142.21;100.00;112049.66;5051625;28;20451;-69
2022/10/26 02:47:37;;;;;;;3.90;2.37;;;17.70;82.70;;;-142.21;100.00;112049.66;5050417;28;20440;-69
2022/10/26 02:50:07;;;;;;;5.33;2.37;;;17.70;82.50;;;-142.21;100.00;112049.66;5051570;28;20451;-68
2022/10/26 02:52:51;;;;;;;4.83;2.63;;;17.70;82.40;;;-142.21;100.00;112049.66;5050595;28;20821;-68
2022/10/26 02:55:25;;;;;;;4.73;2.80;;;17.70;82.50;;;-142.21;100.00;112049.66;5050505;28;20487;-67
2022/10/26 02:58:00;;;;;;;5.53;2.50;;;17.60;82.70;;;-142.21;100.00;112049.66;5051388;28;20440;-68
2022/10/26 03:00:27;;;;;;;5.50;2.37;;;17.50;83.10;;;-142.21;100.00;112049.66;5049116;28;20427;-69
2022/10/26 03:02:58;;;;;;;6.20;2.30;;;17.50;83.00;;;-142.21;100.00;112049.66;5031690;28;20436;-68
2022/10/26 03:05:31;;;;;;;3.93;2.40;;;17.60;83.10;;;-142.21;100.00;112049.66;5044844;28;20467;-68
2022/10/26 03:07:59;;;;;;;4.40;2.37;;;17.60;82.90;;;-142.21;100.00;112049.66;5051548;28;20444;-68
2022/10/26 03:10:27;;;;;;;4.53;2.33;;;17.60;82.90;;;-142.21;100.00;112049.66;5053039;28;20451;-68
2022/10/26 03:12:54;;;;;;;5.30;2.60;;;17.50;82.90;;;-142.21;100.00;112049.66;5054183;28;20439;-68
2022/10/26 03:15:22;;;;;;;6.50;2.80;;;17.50;83.10;;;-142.21;100.00;112049.66;5054052;28;20932;-69
2022/10/26 03:17:49;;;;;;;2.93;2.20;;;17.40;83.30;;;-142.21;100.00;112049.66;5054809;28;20458;-68
2022/10/26 03:20:16;;;;;;;4.23;2.57;;;17.50;83.40;;;-142.21;100.00;112049.66;5054986;28;20450;-69
2022/10/26 03:22:47;;;;;;;6.07;2.90;;;17.40;83.30;;;-142.21;100.00;112049.66;5054565;28;20444;-68
2022/10/26 03:25:15;;;;;;;5.70;2.77;;;17.40;83.70;;;-142.21;100.00;112049.66;5054814;28;20476;-69
2022/10/26 03:27:42;;;;;;;5.37;2.40;;;17.40;83.70;;;-142.21;100.00;112049.66;5054587;28;20949;-68
2022/10/26 03:30:11;;;;;;;4.60;2.73;;;17.40;83.70;;;-142.21;100.00;112049.66;5054119;28;20524;-70
2022/10/26 03:32:38;;;;;;;3.73;2.67;;;17.30;83.50;;;-142.21;100.00;112049.66;5052310;28;20622;-70
2022/10/26 03:35:07;;;;;;;6.03;2.60;;;17.40;83.40;;;-142.21;100.00;112049.66;5054651;28;20835;-70
2022/10/26 03:37:35;;;;;;;7.07;2.30;;;17.40;83.30;;;-142.21;100.00;112049.66;5053248;28;20505;-69
2022/10/26 03:40:04;;;;;;;3.70;2.23;;;17.40;83.20;;;-142.21;100.00;112049.66;5054592;28;20562;-69
2022/10/26 03:42:36;;;;;;;3.30;2.20;;;17.40;83.20;;;-142.21;100.00;112049.66;5053872;28;20480;-70
2022/10/26 03:45:04;;;;;;;2.87;2.40;;;17.40;83.10;;;-142.21;100.00;112049.66;5054608;28;20507;-69
2022/10/26 03:47:31;;;;;;;5.10;2.43;;;17.40;83.00;;;-142.21;100.00;112049.66;5053894;28;20522;-69
2022/10/26 03:49:58;;;;;;;3.97;2.40;;;17.50;83.10;;;-142.21;100.00;112049.66;5054401;28;20890;-69
2022/10/26 03:52:25;;;;;;;3.30;2.43;;;17.40;82.80;;;-142.21;100.00;112049.66;5053427;28;20527;-69
2022/10/26 03:54:52;;;;;;;4.57;2.37;;;17.40;82.70;;;-142.21;100.00;112049.66;5054477;28;20556;-69
2022/10/26 03:57:21;;;;;;;4.17;2.10;;;17.40;82.90;;;-142.21;100.00;112049.66;5054029;28;21005;-68
2022/10/26 03:59:48;;;;;;;3.50;2.30;;;17.40;82.90;;;-142.21;100.00;112049.66;5053628;28;20490;-69
2022/10/26 04:02:15;;;;;;;4.30;2.37;;;17.40;82.70;;;-142.21;100.00;112049.66;5053628;28;20582;-69
2022/10/26 04:04:42;;;;;;;4.70;2.27;;;17.40;82.70;;;-142.21;100.00;112049.66;5033815;28;20540;-69
2022/10/26 04:07:10;;;;;;;4.03;2.90;;;17.30;82.90;;;-142.21;100.00;112049.66;5049117;28;21011;-68
2022/10/26 04:09:37;;;;;;;2.43;2.23;;;17.40;82.90;;;-142.21;100.00;112049.66;5053500;28;20451;-69
2022/10/26 04:12:06;;;;;;;5.13;2.57;;;17.30;82.90;;;-142.21;100.00;112049.66;5053117;28;20723;-68
2022/10/26 04:14:34;;;;;;;3.17;2.33;;;17.20;82.80;;;-142.21;100.00;112049.66;5053294;28;20445;-70
2022/10/26 04:17:01;;;;;;;2.97;2.43;;;17.10;83.20;;;-142.21;100.00;112049.66;5053115;28;20463;-69
2022/10/26 04:19:28;;;;;;;2.53;2.20;;;17.10;83.20;;;-142.21;100.00;112049.66;5052805;28;20488;-69
2022/10/26 04:21:55;;;;;;;4.30;2.10;;;17.10;83.10;;;-142.21;100.00;112049.66;5052323;28;20444;-70
2022/10/26 04:24:22;;;;;;;4.93;2.37;;;17.10;83.10;;;-142.21;100.00;112049.66;5052937;28;20445;-69
2022/10/26 04:26:49;;;;;;;4.87;2.50;;;17.10;83.00;;;-142.21;100.00;112049.66;5053023;28;20476;-69
2022/10/26 04:29:17;;;;;;;5.80;2.20;;;17.20;82.90;;;-142.21;100.00;112049.66;5053014;28;20951;-70
2022/10/26 04:31:45;;;;;;;3.57;1.93;;;17.20;82.80;;;-142.21;100.00;112049.66;5052298;28;20539;-69
2022/10/26 04:34:12;;;;;;;3.90;2.23;;;17.20;82.70;;;-142.21;100.00;112049.66;5053131;28;20452;-69
2022/10/26 04:36:40;;;;;;;3.30;1.90;;;17.20;82.70;;;-142.21;100.00;112049.66;5052550;28;20445;-69
2022/10/26 04:39:07;;;;;;;3.50;2.30;;;17.20;83.50;;;-142.21;100.00;112049.66;5053256;28;20567;-69
2022/10/26 04:41:34;;;;;;;3.50;2.27;;;17.20;82.70;;;-142.21;100.00;112049.66;5052564;28;20466;-68
2022/10/26 04:44:01;;;;;;;3.80;2.20;;;17.20;82.70;;;-142.21;100.00;112049.66;5053418;28;20466;-68
2022/10/26 04:46:28;;;;;;;7.97;2.53;;;17.20;82.70;;;-142.21;100.00;112049.66;5052116;28;21041;-69
2022/10/26 04:48:57;;;;;;;4.57;2.20;;;17.20;82.70;;;-142.21;100.00;112049.66;5053402;28;20775;-69
2022/10/26 04:51:24;;;;;;;3.57;2.60;;;17.20;82.90;;;-142.21;100.00;112049.66;5051965;28;20781;-69
2022/10/26 04:53:54;;;;;;;4.73;2.67;;;17.30;83.00;;;-142.21;100.00;112049.66;5050781;28;20563;-69
2022/10/26 04:56:21;;;;;;;2.93;2.03;;;17.20;83.00;;;-142.21;100.00;112049.66;5052973;28;20450;-68
2022/10/26 04:58:48;;;;;;;3.07;2.13;;;17.30;82.90;;;-142.21;100.00;112049.66;5052555;28;20476;-69
2022/10/26 05:01:15;;;;;;;5.20;2.33;;;17.30;83.00;;;-142.21;100.00;112049.66;5052521;28;20445;-68
2022/10/26 05:03:42;;;;;;;2.40;2.20;;;17.20;83.00;;;-142.21;100.00;112049.66;5052468;28;20856;-68
2022/10/26 05:06:11;;;;;;;3.20;2.60;;;17.30;83.10;;;-142.21;100.00;112049.66;5052903;28;20518;-69
2022/10/26 05:08:38;;;;;;;3.50;2.40;;;17.30;83.00;;;-142.21;100.00;112049.66;5051794;28;20448;-68
2022/10/26 05:11:05;;;;;;;4.63;2.40;;;17.30;83.20;;;-142.21;100.00;112049.66;5052116;28;20476;-67
2022/10/26 05:13:33;;;;;;;4.63;2.43;;;17.30;83.30;;;-142.21;100.00;112049.66;5052211;28;20482;-69
2022/10/26 05:16:01;;;;;;;4.07;2.00;;;17.30;83.20;;;-142.21;100.00;112049.66;5052834;28;20527;-69
2022/10/26 05:18:28;;;;;;;8.23;2.40;;;17.30;83.20;;;-142.21;100.00;112049.66;5051315;28;20453;-68
2022/10/26 05:20:55;;;;;;;6.33;2.27;;;17.30;83.20;;;-142.21;100.00;112049.66;5052815;28;20450;-70
2022/10/26 05:23:24;;;;;;;4.77;2.10;;;17.30;83.10;;;-142.21;100.00;112049.66;5052685;28;20798;-69
2022/10/26 05:25:51;;;;;;;3.80;2.70;;;17.30;83.30;;;-142.21;100.00;112049.66;5051751;28;20555;-70
2022/10/26 05:28:19;;;;;;;4.40;2.87;;;17.30;83.00;;;-142.21;100.00;112049.66;5052203;28;20470;-70
2022/10/26 05:30:47;;;;;;;4.87;2.60;;;17.30;83.20;;;-142.21;100.00;112049.66;5051991;28;20494;-70
2022/10/26 05:33:16;;;;;;;4.83;2.97;;;17.30;83.30;;;-142.21;100.00;112049.66;5051261;28;20455;-68
2022/10/26 05:35:43;;;;;;;4.80;2.80;;;17.30;83.30;;;-142.21;100.00;112049.66;5051362;28;20491;-70
2022/10/26 05:38:14;;;;;;;7.07;2.97;;;17.30;83.40;;;-142.21;100.00;112049.66;5054060;28;20527;-69
2022/10/26 05:40:49;;;;;;;3.90;2.47;;;17.30;84.10;;;-142.21;100.00;112049.66;5058233;28;20811;-69
2022/10/26 05:43:16;;;;;;;6.60;2.40;;;17.30;83.60;;;-142.21;100.00;112049.66;5054960;28;20519;-68
2022/10/26 05:45:46;;;;;;;4.53;2.40;;;17.30;83.70;;;-142.21;100.00;112049.66;5052051;28;20449;-68
2022/10/26 05:48:13;;;;;;;2.50;2.17;;;17.30;83.60;;;-142.21;100.00;112049.66;5052490;28;20929;-68
2022/10/26 05:50:40;;;;;;;4.80;2.50;;;17.30;83.50;;;-142.21;100.00;112049.66;5050862;28;20531;-69
2022/10/26 05:53:07;;;;;;;5.37;3.10;;;17.30;83.50;;;-142.21;100.00;112049.66;5051542;28;20496;-70
2022/10/26 05:55:36;;;;;;;3.77;2.50;;;17.30;83.20;;;-142.21;100.00;112049.66;5051447;28;20531;-70
2022/10/26 05:58:10;;;;;;;3.07;2.60;;;17.30;83.20;;;-142.21;100.00;112049.66;5051645;28;20448;-69
2022/10/26 06:00:51;;;;;;;3.93;2.30;;;17.20;83.50;;;-142.21;100.00;112049.66;5050001;28;20551;-69
2022/10/26 06:03:37;;;;;;;2.70;2.30;;;17.20;83.80;;;-142.21;100.00;112049.66;5049424;28;20835;-71
2022/10/26 06:06:09;;;;;;;9.83;2.70;;;17.20;84.10;;;-142.21;100.00;112049.66;5052005;28;20550;-71
2022/10/26 06:08:39;;;;;;;3.83;2.53;;;17.20;84.00;;;-142.21;100.00;112049.66;5039327;28;20531;-71
2022/10/26 06:11:08;;;;;;;7.43;2.80;;;17.20;84.00;;;-142.21;100.00;112049.66;5051913;28;20992;-69
2022/10/26 06:13:38;;;;;;;7.23;2.80;;;17.20;84.20;;;-142.21;100.00;112049.66;5051661;28;20442;-71
2022/10/26 06:16:29;;;;;;;3.87;2.30;;;17.20;84.30;;;-142.21;100.00;112049.66;5051340;28;20480;-74
2022/10/26 06:19:14;;;;;;;3.33;2.43;;;17.20;84.30;;;-142.21;100.00;112049.66;5034632;28;20467;-73
2022/10/26 06:22:04;;;;;;;3.97;2.57;;;17.10;84.70;;;-142.21;100.00;112049.66;5051260;28;20833;-73
2022/10/26 06:24:45;;;;;;;4.40;2.60;;;17.00;85.10;;;-142.21;100.00;112049.66;5051180;28;20486;-75
2022/10/26 06:27:28;;;;;;;3.87;2.60;;;17.00;85.00;;;-142.21;100.00;112049.66;5051704;28;20436;-74
2022/10/26 06:30:03;;;;;;;2.90;2.40;;;17.10;85.10;;;-142.21;100.00;112049.66;5051121;28;20440;-73
2022/10/26 06:32:30;;;;;;;4.43;2.00;;;17.10;85.10;;;-142.21;100.00;112049.66;5051712;28;20524;-76
2022/10/26 06:35:25;;;;;;;3.80;2.53;;;17.10;85.10;;;-142.21;100.00;112049.66;5051776;28;20951;-75
2022/10/26 06:37:55;;;;;;;3.77;2.80;;;17.10;85.20;;;-142.21;100.00;112049.66;5041137;28;20451;-74
2022/10/26 06:40:24;;;;;;;3.77;2.33;;;17.00;85.40;;;-142.21;100.00;112049.66;5051093;28;20974;-72
2022/10/26 06:42:52;;;;;;;4.50;2.23;;;16.90;85.70;;;-142.21;100.00;112049.66;5050364;28;20449;-73
2022/10/26 06:45:22;;;;;;;4.00;2.70;;;17.00;86.00;;;-142.21;100.00;112049.66;5053727;28;20487;-73
2022/10/26 06:48:00;;;;;;;5.63;3.00;;;17.00;85.60;;;-142.21;100.00;112049.66;5055419;28;20448;-73
2022/10/26 06:50:36;;;;;;;4.57;2.37;;;17.10;85.50;;;-142.21;100.00;112049.66;5055671;28;20519;-72
2022/10/26 06:53:21;;;;;;;3.27;2.57;;;17.20;85.40;;;-142.21;100.00;112049.66;5048873;28;20835;-73
2022/10/26 06:55:51;;;;;;;6.57;2.97;;;17.20;85.20;;;-142.21;100.00;112049.66;5042256;28;20446;-72
2022/10/26 06:58:20;;;;;;;5.50;2.37;;;17.30;85.00;;;-142.21;100.00;112049.66;5054566;28;20913;-73
2022/10/26 07:00:53;;;;;;;5.70;2.60;;;17.30;84.80;;;-142.21;100.00;112049.66;5054874;28;20579;-73
2022/10/26 07:03:20;;;;;;;7.77;2.67;;;17.40;84.70;;;-142.21;100.00;112049.66;5055377;28;20424;-72
2022/10/26 07:05:48;;;;;;;3.30;2.80;;;17.40;84.60;;;-142.21;100.00;112049.66;5054520;28;20929;-73
2022/10/26 07:08:15;;;;;;;4.23;2.77;;;17.40;84.50;;;-142.21;100.00;112049.66;5054499;28;20963;-73
2022/10/26 07:10:44;;;;;;;5.43;2.50;;;17.40;84.60;;;-142.21;100.00;112049.66;5036240;28;20440;-74
2022/10/26 07:13:11;;;;;;;5.07;3.20;;;17.50;84.80;;;-142.21;100.00;112049.66;5035496;28;20467;-71
2022/10/26 07:15:41;;;;;;;5.03;3.53;;;17.50;84.80;;;-142.21;100.00;112049.66;5037060;28;20444;-71
2022/10/26 07:18:10;;;;;;;4.90;3.13;;;17.50;84.70;;;-142.21;100.00;112049.66;5054940;28;20456;-72
2022/10/26 07:20:40;;;;;;;5.93;3.30;;;17.60;85.50;;;-142.21;100.00;112049.66;5054003;28;20484;-72
2022/10/26 07:23:09;;;;;;;4.80;3.40;;;17.60;84.70;;;-142.21;100.00;112049.66;5054170;28;20444;-70
2022/10/26 07:25:39;;;;;;;8.80;3.90;;;17.70;84.80;;;-142.21;100.00;112049.66;5054066;28;20483;-72
2022/10/26 07:28:08;;;;;;;5.20;3.53;;;17.70;84.80;;;-142.21;100.00;112049.66;5055175;28;20440;-72
2022/10/26 07:30:37;;;;;;;5.03;3.07;;;17.70;84.60;;;-142.21;100.00;112049.66;5054234;28;20480;-72
2022/10/26 07:33:08;;;;;;;3.30;2.40;;;17.80;84.50;;;-142.21;100.00;112049.66;5047692;28;20448;-71
2022/10/26 07:35:37;;;;;;;6.30;2.60;;;17.80;84.30;;;-142.21;100.00;112049.66;5042847;28;20456;-72
2022/10/26 07:38:05;;;;;;;10.13;3.50;;;17.80;84.40;;;-142.21;100.00;112049.66;5052997;28;20451;-71
2022/10/26 07:40:32;;;;;;;6.60;2.80;;;17.80;84.70;;;-142.21;100.00;112049.66;5054280;28;20484;-71
2022/10/26 07:43:00;;;;;;;4.63;2.20;;;17.80;84.80;;;-142.21;100.00;112049.66;5054538;28;20448;-71
2022/10/26 07:45:29;;;;;;;5.97;2.43;;;17.80;84.80;;;-142.21;100.00;112049.66;5048949;28;20471;-71
2022/10/26 07:47:57;;;;;;;4.87;2.63;;;17.90;84.70;;;-142.21;100.00;112049.66;5053744;28;20443;-71
2022/10/26 07:50:25;;;;;;;3.37;2.80;;;17.90;84.40;;;-142.21;100.00;112049.66;5054146;28;20889;-71
2022/10/26 07:52:53;;;;;;;5.97;2.97;;;18.00;84.40;;;-142.21;100.00;112049.66;5051939;28;20495;-71
2022/10/26 07:55:20;;;;;;;3.33;2.60;;;18.10;84.30;;;-142.21;100.00;112049.66;5053786;28;20445;-72
2022/10/26 07:57:48;;;;;;;5.43;3.10;;;18.20;84.20;;;-142.21;100.00;112049.66;5053786;28;20448;-72
2022/10/26 08:00:16;;;;;;;3.93;3.07;;;18.20;84.30;;;-142.21;100.00;112049.66;5054095;28;20490;-72
2022/10/26 08:02:45;;;;;;;3.60;2.53;;;18.30;84.40;;;-142.21;100.00;112049.66;5052823;28;20440;-71
2022/10/26 08:05:12;;;;;;;3.50;3.20;;;18.30;84.20;;;-142.21;100.00;112049.66;5053902;28;20452;-71
2022/10/26 08:07:43;;;;;;;5.17;3.40;;;18.40;84.00;;;-142.21;100.00;112049.66;5052512;28;20212;-72
2022/10/26 08:10:14;;;;;;;5.00;2.80;;;18.40;83.50;;;-142.21;100.00;112049.66;5053026;28;20471;-72
2022/10/26 08:12:43;;;;;;;5.10;2.90;;;18.50;83.40;;;-142.21;100.00;112049.66;5052831;28;20440;-72
2022/10/26 08:15:11;;;;;;;5.17;2.80;;;18.50;83.00;;;-142.21;100.00;112049.66;5053788;28;20650;-71
2022/10/26 08:17:38;;;;;;;5.47;2.77;;;18.50;82.80;;;-142.21;100.00;112049.66;5052964;28;20535;-71
2022/10/26 08:20:07;;;;;;;3.50;2.20;;;18.60;82.90;;;-142.21;100.00;112049.66;5053497;28;20484;-71
2022/10/26 08:22:34;;;;;;;4.87;2.40;;;18.60;82.50;;;-142.21;100.00;112049.66;5052357;28;20982;-71
2022/10/26 08:25:01;;;;;;;4.37;2.40;;;18.70;82.60;;;-142.21;100.00;112049.66;5053803;28;20264;-71
2022/10/26 08:27:31;;;;;;;3.40;2.30;;;18.70;82.30;;;-142.21;100.00;112049.66;5053492;28;20796;-71
2022/10/26 08:29:58;;;;;;;3.70;2.40;;;18.70;82.60;;;-142.21;100.00;112049.66;5053412;28;20239;-71
2022/10/26 08:32:26;;;;;;;3.97;2.60;;;18.80;82.70;;;-142.21;100.00;112049.66;5053328;28;20929;-71
2022/10/26 08:34:53;;;;;;;5.87;3.03;;;18.90;82.90;;;-142.21;100.00;112049.66;5052255;28;20221;-72
2022/10/26 08:37:21;;;;;;;4.73;2.80;;;18.90;81.70;;;-142.21;100.00;112049.66;5052570;28;20455;-71
2022/10/26 08:39:48;;;;;;;5.33;3.10;;;19.00;82.00;;;-142.21;100.00;112049.66;5052755;28;20275;-70
2022/10/26 08:42:22;;;;;;;5.03;3.10;;;19.10;82.00;;;-142.21;100.00;112049.66;5052993;28;20241;-72
2022/10/26 08:44:59;;;;;;;4.93;2.83;;;19.30;81.20;;;-142.21;100.00;112049.66;5052910;28;20222;-71
2022/10/26 08:47:35;;;;;;;5.37;3.13;;;19.50;80.80;;;-142.21;100.00;112049.66;5053235;28;20256;-71
2022/10/26 08:50:10;;;;;;;6.73;2.90;;;19.70;79.90;;;-142.21;100.00;112049.66;5053243;28;20196;-71
2022/10/26 08:52:44;;;;;;;4.87;2.70;;;19.90;78.60;;;-142.21;100.00;112049.66;5052221;28;20539;-71
2022/10/26 08:55:18;;;;;;;4.40;2.67;;;20.00;78.50;;;-142.21;100.00;112049.66;5052762;28;20194;-72
2022/10/26 08:57:49;;;;;;;4.77;2.97;;;20.20;77.90;;;-142.21;100.00;112049.66;5052482;28;20192;-71
2022/10/26 09:00:21;;;;;;;7.50;2.93;;;20.20;77.20;;;-142.21;100.00;112049.66;5052301;28;20229;-72
2022/10/26 09:02:50;;;;;;;7.33;3.17;;;20.30;76.70;;;-142.21;100.00;112049.66;5032411;28;20190;-71
2022/10/26 09:05:23;;;;;;;4.53;2.50;;;20.40;77.20;;;-142.21;100.00;112049.66;5038644;28;20590;-72
2022/10/26 09:08:01;;;;;;;5.50;3.10;;;20.30;77.10;;;-142.21;100.00;112049.66;5051705;28;20517;-71
2022/10/26 09:10:40;;;;;;;5.13;2.83;;;20.40;76.70;;;-142.21;100.00;112049.66;5052355;28;20625;-71
2022/10/26 09:13:25;;;;;;;5.67;3.40;;;20.40;76.10;;;-142.21;100.00;112049.66;5052876;28;20277;-72
2022/10/26 09:16:06;;;;;;;4.07;2.97;;;20.60;76.40;;;-142.21;100.00;112049.66;5051958;28;20277;-71
2022/10/26 09:18:52;;;;;;;4.53;2.53;;;20.70;75.70;;;-142.21;100.00;112049.66;5052497;28;20285;-71
2022/10/26 09:21:38;;;;;;;5.20;2.90;;;20.80;75.70;;;-142.21;100.00;112049.66;5052253;28;20553;-71
2022/10/26 09:24:14;;;;;;;4.87;2.80;;;20.80;75.30;;;-142.21;100.00;112049.66;5052603;28;20189;-70
2022/10/26 09:26:54;;;;;;;3.87;2.90;;;20.90;75.90;;;-142.21;100.00;112049.66;5031924;28;20245;-71
2022/10/26 09:29:27;;;;;;;4.87;3.03;;;21.00;75.30;;;-142.21;100.00;112049.66;5034594;28;20187;-71
2022/10/26 09:32:00;;;;;;;4.20;2.60;;;21.00;75.10;;;-142.21;99.96;112049.66;5051904;28;20292;-72
2022/10/26 09:34:36;;;;;;;4.70;2.73;;;21.10;75.30;;;-142.21;98.61;112049.66;5052194;28;20194;-72
2022/10/26 09:37:15;;;;;;;4.40;2.33;;;21.30;75.50;;;-142.21;99.05;112049.66;5052574;28;20527;-71
2022/10/26 09:39:54;;;;;;;4.90;2.80;;;21.60;74.90;;;-142.21;95.65;112049.66;5051585;28;20198;-70
2022/10/26 09:42:33;;;;;;;5.90;2.70;;;21.80;73.50;;;-142.21;96.45;112049.66;5052150;28;20545;-71
2022/10/26 09:45:11;;;;;;;7.33;2.70;;;22.00;73.60;;;-142.21;95.29;112049.66;5049116;28;20653;-71
2022/10/26 09:47:47;;;;;;;5.43;2.67;;;22.20;73.00;;;-142.21;94.95;112049.66;5051847;28;20193;-71
2022/10/26 09:50:24;;;;;;;4.60;2.40;;;22.40;72.70;;;-142.21;91.64;112049.66;5052399;28;20186;-72
2022/10/26 09:52:51;;;;;;;5.67;2.20;;;22.50;71.30;;;-142.21;89.88;112049.66;5037857;28;20190;-73
2022/10/26 09:55:19;;;;;;;5.70;2.30;;;22.70;70.50;;;-142.21;89.96;112049.66;5055149;28;20209;-72
2022/10/26 09:57:52;;;;;;;5.03;2.57;;;22.80;70.50;;;-142.21;87.65;112049.66;5051758;28;20252;-73
2022/10/26 10:00:22;;;;;;;5.77;2.67;;;23.00;69.30;;;-142.21;87.07;112049.66;5051922;28;20211;-71
2022/10/26 10:02:53;;;;;;;6.47;2.90;;;23.20;69.10;;;-142.21;83.73;112049.66;5034289;28;20187;-71
2022/10/26 10:05:31;;;;;;;4.60;2.30;;;23.30;66.90;;;-142.21;81.80;112049.66;5052529;28;20654;-71
2022/10/26 10:08:17;;;;;;;3.53;2.33;;;23.30;66.70;;;-142.21;80.93;112049.66;5051784;28;20664;-72
2022/10/26 10:11:05;;;;;;;8.30;2.60;;;23.20;65.60;;;-142.21;80.91;112049.66;5032561;28;20200;-71
2022/10/26 10:13:35;;;;;;;4.53;2.40;;;23.20;65.60;;;-142.21;79.76;112049.66;5051968;28;20221;-71